Redrock, New Mexico
Current Conditions -  °F | °C
As of 8:55 AM on Thursday 27 Nov 2014 (Local Time) from KLSB Reporting Station
Clear Clear  
Wind Chill: 39°   Ceiling: Unl
Heat Index: 43°   Visibility: 10mi
Dew Point: 19°   Wind: 7mph
Humidity: 39%   Direction: 140°SE
Pressure: 30.41"   Gusts: NA
Location:  32.69°N, 108.74°W
Report Text: KLSB 271555Z AUTO 14006KT 10SM CLR 06/M07 A3041 RMK AO2
Loading
Personal Weather Stations






























Interactive Weather Map New forecast layout! Learn more

10-Day Weather Forecast

Advertisements
Track Severe Weather on mobile